Time;durP1;ratioP1;P1;durP2;ratioP2;P2;SDS_P1;SDS_P2;PMS_P1;PMS_P2;Temp;Humidity;BMP_temperature;BMP_pressure;BME280_temperature;BME280_humidity;BME280_pressure;Samples;Min_cycle;Max_cycle;Signal;HPM_P1;HPM_P2
2021/01/18 00:00:21;;;;;;;39.13;19.70;;;0.80;84.20;;;;;;5052302;28;20473;-69
2021/01/18 00:02:47;;;;;;;39.15;19.58;;;0.80;84.40;;;;;;5052959;28;20063;-70
2021/01/18 00:05:13;;;;;;;41.07;21.47;;;0.80;84.50;;;;;;5051798;28;20041;-70
2021/01/18 00:07:43;;;;;;;40.70;21.00;;;0.80;84.50;;;;;;5052906;28;20087;-70
2021/01/18 00:10:12;;;;;;;36.80;20.00;;;0.80;84.40;;;;;;5050960;28;20037;-68
2021/01/18 00:12:37;;;;;;;40.40;20.73;;;0.90;84.50;;;;;;5051134;28;20493;-71
2021/01/18 00:15:04;;;;;;;38.57;20.30;;;0.90;84.50;;;;;;5054359;28;20124;-70
2021/01/18 00:17:32;;;;;;;37.97;20.67;;;0.90;84.60;;;;;;5067575;28;20060;-69
2021/01/18 00:19:58;;;;;;;41.73;20.70;;;0.90;84.70;;;;;;5060552;28;20123;-70
2021/01/18 00:22:24;;;;;;;40.13;20.20;;;0.90;84.80;;;;;;5069670;28;20128;-70
2021/01/18 00:24:49;;;;;;;39.03;20.47;;;0.90;84.60;;;;;;5063726;28;20032;-70
2021/01/18 00:27:15;;;;;;;41.50;20.73;;;0.90;84.70;;;;;;5070277;28;20459;-70
2021/01/18 00:29:41;;;;;;;38.40;19.67;;;0.90;84.80;;;;;;5064486;28;20032;-69
2021/01/18 00:32:06;;;;;;;41.70;21.10;;;0.90;84.80;;;;;;5072080;28;20378;-69
2021/01/18 00:34:32;;;;;;;42.07;20.53;;;0.90;84.80;;;;;;5072542;28;20043;-69
2021/01/18 00:36:58;;;;;;;40.40;21.30;;;0.90;85.00;;;;;;5072147;28;20123;-70
2021/01/18 00:39:23;;;;;;;42.60;21.93;;;0.90;85.00;;;;;;5070208;28;20045;-70
2021/01/18 00:41:49;;;;;;;43.20;22.17;;;0.90;85.20;;;;;;5065297;28;20037;-71
2021/01/18 00:44:15;;;;;;;45.53;22.07;;;0.90;85.60;;;;;;5053987;28;20055;-70
2021/01/18 00:46:44;;;;;;;42.77;21.93;;;0.90;85.60;;;;;;5072173;28;20032;-69
2021/01/18 00:49:11;;;;;;;46.47;23.98;;;0.90;85.50;;;;;;5070413;28;20048;-70
2021/01/18 00:51:40;;;;;;;43.10;21.30;;;0.90;85.40;;;;;;5070040;28;20039;-69
2021/01/18 00:54:08;;;;;;;41.83;20.80;;;1.00;85.40;;;;;;5070796;28;20123;-70
2021/01/18 00:56:40;;;;;;;40.50;21.80;;;1.00;85.20;;;;;;5071807;28;20454;-71
2021/01/18 00:59:13;;;;;;;42.90;21.30;;;0.90;85.20;;;;;;5070603;28;20123;-69
2021/01/18 01:01:52;;;;;;;41.83;21.03;;;0.90;85.30;;;;;;5055467;28;20500;-68
2021/01/18 01:04:19;;;;;;;41.83;21.73;;;0.90;85.50;;;;;;5054163;28;20032;-70
2021/01/18 01:06:44;;;;;;;50.67;23.97;;;0.90;85.70;;;;;;5069980;28;20036;-70
2021/01/18 01:09:10;;;;;;;48.53;23.37;;;0.90;85.90;;;;;;5070511;28;20028;-70
2021/01/18 01:11:42;;;;;;;41.43;21.10;;;0.90;85.70;;;;;;5071128;28;20044;-69
2021/01/18 01:14:08;;;;;;;47.47;22.57;;;0.90;85.80;;;;;;5071401;28;20040;-69
2021/01/18 01:16:34;;;;;;;46.20;24.37;;;0.80;85.80;;;;;;5071732;28;20033;-70
2021/01/18 01:19:00;;;;;;;44.23;22.80;;;0.80;85.90;;;;;;5071060;28;20041;-69
2021/01/18 01:21:25;;;;;;;44.27;22.47;;;0.80;85.70;;;;;;5070546;28;20500;-70
2021/01/18 01:23:51;;;;;;;47.50;24.30;;;0.80;86.00;;;;;;5071283;28;20040;-69
2021/01/18 01:26:17;;;;;;;58.63;28.53;;;0.80;86.10;;;;;;5071043;28;20040;-70
2021/01/18 01:28:42;;;;;;;48.17;23.73;;;0.80;86.30;;;;;;5071522;28;20467;-69
2021/01/18 01:31:08;;;;;;;56.10;26.83;;;0.80;86.40;;;;;;5068981;28;20040;-70
2021/01/18 01:33:34;;;;;;;45.23;22.37;;;0.70;86.50;;;;;;5071402;28;20036;-70
2021/01/18 01:36:01;;;;;;;48.40;23.83;;;0.70;86.80;;;;;;5071204;28;20047;-70
2021/01/18 01:38:26;;;;;;;47.03;23.23;;;0.80;87.10;;;;;;5070891;28;20037;-70
2021/01/18 01:40:52;;;;;;;43.60;22.50;;;0.80;87.10;;;;;;5069272;28;20036;-70
2021/01/18 01:43:18;;;;;;;48.53;23.67;;;0.80;87.50;;;;;;5069514;28;20029;-70
2021/01/18 01:45:43;;;;;;;45.40;23.33;;;0.90;87.00;;;;;;5071310;28;20429;-69
2021/01/18 01:48:10;;;;;;;50.10;24.20;;;0.90;86.80;;;;;;5071234;28;20052;-70
2021/01/18 01:50:38;;;;;;;48.17;24.00;;;0.90;86.90;;;;;;5068551;28;20043;-70
2021/01/18 01:53:21;;;;;;;50.40;24.70;;;0.90;87.20;;;;;;5071152;28;20032;-70
2021/01/18 01:55:47;;;;;;;47.43;23.07;;;0.90;87.10;;;;;;5069496;28;20483;-70
2021/01/18 01:58:15;;;;;;;48.67;23.97;;;0.90;87.00;;;;;;5071156;28;20044;-70
2021/01/18 02:00:42;;;;;;;49.20;23.37;;;0.90;87.10;;;;;;5069999;28;20024;-69
2021/01/18 02:03:12;;;;;;;51.23;24.07;;;0.80;87.10;;;;;;5070958;28;20495;-69
2021/01/18 02:05:39;;;;;;;50.87;24.93;;;0.80;87.30;;;;;;5070662;28;20028;-70
2021/01/18 02:08:09;;;;;;;49.87;24.60;;;0.80;87.50;;;;;;5071020;28;20499;-70
2021/01/18 02:10:37;;;;;;;48.90;24.43;;;0.80;87.30;;;;;;5070311;28;20028;-71
2021/01/18 02:13:36;;;;;;;48.27;23.47;;;0.80;87.60;;;;;;5070638;28;20261;-70
2021/01/18 02:16:26;;;;;;;53.00;24.73;;;0.80;88.00;;;;;;5065703;28;20527;-70
2021/01/18 02:19:31;;;;;;;51.97;25.42;;;0.80;87.90;;;;;;5070409;28;20404;-70
2021/01/18 02:22:24;;;;;;;52.83;24.80;;;0.80;88.00;;;;;;5039000;28;20052;-70
2021/01/18 02:25:39;;;;;;;55.67;25.13;;;0.80;87.90;;;;;;5069566;28;20040;-70
2021/01/18 02:28:15;;;;;;;52.80;24.40;;;0.80;88.30;;;;;;5061943;28;20396;-70
2021/01/18 02:31:13;;;;;;;46.43;22.70;;;0.80;88.90;;;;;;5070006;28;20460;-71
2021/01/18 02:34:02;;;;;;;58.30;25.63;;;0.80;88.60;;;;;;5069343;28;20040;-70
2021/01/18 02:36:33;;;;;;;54.00;25.27;;;0.90;88.90;;;;;;5072123;28;20043;-68
2021/01/18 02:39:24;;;;;;;48.87;23.50;;;0.90;88.90;;;;;;5074796;28;20079;-71
2021/01/18 02:42:02;;;;;;;47.33;23.60;;;0.90;88.80;;;;;;5072534;28;20036;-71
2021/01/18 02:44:29;;;;;;;58.47;27.47;;;0.90;89.00;;;;;;5073401;28;20041;-70
2021/01/18 02:46:58;;;;;;;56.77;26.83;;;1.00;88.90;;;;;;5074194;28;20040;-70
2021/01/18 02:49:25;;;;;;;58.27;26.77;;;0.90;88.70;;;;;;5074441;28;20032;-70
2021/01/18 02:52:00;;;;;;;56.83;25.80;;;0.90;88.90;;;;;;5073655;28;20484;-69
2021/01/18 02:54:26;;;;;;;60.90;27.53;;;0.90;89.10;;;;;;5074490;28;20061;-69
2021/01/18 02:56:53;;;;;;;55.97;25.83;;;1.00;89.20;;;;;;5074457;28;20060;-70
2021/01/18 02:59:19;;;;;;;60.63;27.53;;;1.00;89.40;;;;;;5073820;28;20071;-70
2021/01/18 03:01:45;;;;;;;59.07;26.77;;;1.00;89.20;;;;;;5073646;28;20049;-69
2021/01/18 03:04:53;;;;;;;57.63;26.73;;;1.00;89.30;;;;;;5073884;28;20044;-70
2021/01/18 03:07:44;;;;;;;60.43;27.27;;;1.10;89.50;;;;;;5035818;28;20454;-70
2021/01/18 03:10:26;;;;;;;57.83;26.30;;;1.10;89.40;;;;;;5073124;28;20036;-70
2021/01/18 03:13:19;;;;;;;60.00;26.70;;;1.10;89.50;;;;;;5074111;28;20123;-71
2021/01/18 03:15:48;;;;;;;64.00;27.13;;;1.10;89.60;;;;;;5073850;28;20051;-70
2021/01/18 03:18:18;;;;;;;54.00;23.77;;;1.10;89.50;;;;;;5072620;28;20040;-70
2021/01/18 03:20:45;;;;;;;60.78;26.27;;;1.10;89.60;;;;;;5072923;28;20451;-69
2021/01/18 03:23:12;;;;;;;56.93;27.73;;;1.10;89.70;;;;;;5072696;28;20040;-70
2021/01/18 03:25:50;;;;;;;59.40;25.50;;;1.10;89.90;;;;;;5072696;28;20033;-69
2021/01/18 03:28:17;;;;;;;65.43;26.07;;;1.20;90.10;;;;;;5072221;28;20036;-70
2021/01/18 03:30:42;;;;;;;61.23;25.87;;;1.20;90.20;;;;;;5070714;28;20040;-70
2021/01/18 03:33:08;;;;;;;60.80;27.87;;;1.20;89.90;;;;;;5072099;28;20040;-69
2021/01/18 03:35:34;;;;;;;60.37;25.27;;;1.20;90.00;;;;;;5071091;28;20025;-70
2021/01/18 03:38:00;;;;;;;63.23;26.63;;;1.20;90.10;;;;;;5072292;28;20524;-70
2021/01/18 03:40:27;;;;;;;56.83;25.47;;;1.20;89.90;;;;;;5071532;28;20558;-70
2021/01/18 03:43:02;;;;;;;58.53;25.30;;;1.20;90.00;;;;;;5071088;28;20040;-70
2021/01/18 03:45:30;;;;;;;65.50;27.27;;;1.20;90.20;;;;;;5072138;28;20052;-70
2021/01/18 03:47:56;;;;;;;64.90;27.03;;;1.20;90.20;;;;;;5071783;28;20060;-70
2021/01/18 03:50:22;;;;;;;59.20;26.93;;;1.20;90.20;;;;;;5069861;28;20500;-69
2021/01/18 03:52:49;;;;;;;63.93;27.10;;;1.30;90.20;;;;;;5072239;28;20036;-69
2021/01/18 03:55:15;;;;;;;62.47;26.53;;;1.30;90.50;;;;;;5072233;28;20048;-68
2021/01/18 03:57:44;;;;;;;59.10;25.87;;;1.20;90.30;;;;;;5071531;28;20516;-69
2021/01/18 04:00:10;;;;;;;62.57;25.17;;;1.30;90.50;;;;;;5071559;28;20123;-70
2021/01/18 04:02:35;;;;;;;62.97;25.93;;;1.30;90.40;;;;;;5071701;28;20115;-70
2021/01/18 04:05:01;;;;;;;65.47;27.63;;;1.30;90.40;;;;;;5070774;28;20515;-68
2021/01/18 04:07:27;;;;;;;63.10;25.43;;;1.40;90.50;;;;;;5071981;28;20024;-70
2021/01/18 04:09:53;;;;;;;69.07;27.53;;;1.40;90.60;;;;;;5052955;28;20031;-70
2021/01/18 04:12:19;;;;;;;74.83;27.43;;;1.40;90.60;;;;;;5071788;28;20056;-69
2021/01/18 04:14:45;;;;;;;69.67;27.63;;;1.50;90.60;;;;;;5070209;28;20094;-70
2021/01/18 04:17:11;;;;;;;66.53;26.27;;;1.50;90.60;;;;;;5071974;28;20039;-70
2021/01/18 04:19:37;;;;;;;71.43;27.90;;;1.50;90.60;;;;;;5053143;28;20037;-70
2021/01/18 04:22:06;;;;;;;71.43;27.17;;;1.60;90.70;;;;;;5049108;28;592411;-70
2021/01/18 04:24:33;;;;;;;68.13;25.87;;;1.60;90.70;;;;;;5072663;28;20059;-70
2021/01/18 04:27:00;;;;;;;75.30;27.57;;;1.60;90.60;;;;;;5072400;28;20036;-69
2021/01/18 04:29:26;;;;;;;67.23;26.63;;;1.60;90.80;;;;;;5072333;28;20477;-70
2021/01/18 04:31:52;;;;;;;70.80;26.87;;;1.60;90.70;;;;;;5071903;28;20047;-71
2021/01/18 04:34:18;;;;;;;68.67;24.57;;;1.60;90.70;;;;;;5072399;28;20036;-69
2021/01/18 04:36:44;;;;;;;76.70;27.10;;;1.60;90.80;;;;;;5072566;28;20452;-67
2021/01/18 04:39:10;;;;;;;71.60;26.10;;;1.70;91.10;;;;;;5070532;28;20044;-70
2021/01/18 04:41:39;;;;;;;76.90;27.27;;;1.60;90.70;;;;;;5071747;28;20111;-70
2021/01/18 04:44:09;;;;;;;74.53;27.30;;;1.60;90.80;;;;;;5071882;28;20412;-69
2021/01/18 04:46:40;;;;;;;74.63;26.37;;;1.70;90.90;;;;;;5070611;28;20460;-67
2021/01/18 04:49:07;;;;;;;84.30;27.58;;;1.70;91.00;;;;;;5054061;28;20105;-69
2021/01/18 04:51:56;;;;;;;79.30;27.70;;;1.60;91.00;;;;;;5052987;28;20445;-70
2021/01/18 04:54:23;;;;;;;70.30;26.10;;;1.70;91.10;;;;;;5044532;28;20126;-69
2021/01/18 04:57:12;;;;;;;81.97;26.20;;;1.70;91.10;;;;;;5052068;28;20087;-70
2021/01/18 04:59:40;;;;;;;76.80;24.63;;;1.70;91.10;;;;;;5050217;28;20045;-70
2021/01/18 05:02:08;;;;;;;71.77;25.77;;;1.70;91.10;;;;;;5051742;28;20575;-69
2021/01/18 05:04:40;;;;;;;78.83;25.43;;;1.70;91.10;;;;;;5051216;28;20120;-68
2021/01/18 05:07:34;;;;;;;63.47;24.23;;;1.70;91.50;;;;;;5050653;28;20178;-68
2021/01/18 05:10:05;;;;;;;70.67;23.73;;;1.80;91.30;;;;;;5049925;28;20056;-69
2021/01/18 05:12:35;;;;;;;73.67;24.50;;;1.80;91.30;;;;;;5051237;28;20033;-69
2021/01/18 05:15:08;;;;;;;93.63;24.20;;;1.80;91.50;;;;;;5051380;28;20123;-70
2021/01/18 05:17:45;;;;;;;87.80;23.43;;;1.80;91.30;;;;;;5050435;28;20037;-70
2021/01/18 05:20:18;;;;;;;69.93;22.73;;;1.80;91.40;;;;;;5049663;28;20525;-70
2021/01/18 05:22:56;;;;;;;67.10;22.30;;;1.80;91.30;;;;;;5051454;28;20497;-69
2021/01/18 05:25:23;;;;;;;72.87;22.83;;;1.80;91.30;;;;;;5050059;28;20044;-69
2021/01/18 05:28:09;;;;;;;64.90;21.40;;;1.80;91.60;;;;;;5051483;28;20083;-68
2021/01/18 05:30:42;;;;;;;58.40;21.27;;;1.80;91.50;;;;;;5050481;28;20124;-68
2021/01/18 05:33:10;;;;;;;65.93;21.63;;;1.80;91.50;;;;;;5051592;28;20037;-68
2021/01/18 05:35:39;;;;;;;56.07;21.40;;;1.80;91.50;;;;;;5051093;28;20082;-69
2021/01/18 05:38:11;;;;;;;54.37;20.23;;;1.80;91.80;;;;;;5050068;28;20095;-69
2021/01/18 05:40:48;;;;;;;55.33;21.10;;;1.80;91.60;;;;;;5050201;28;20032;-69
2021/01/18 05:43:15;;;;;;;58.10;21.17;;;1.80;91.70;;;;;;5054579;28;20102;-69
2021/01/18 05:45:45;;;;;;;56.00;20.47;;;1.80;91.70;;;;;;5063054;28;20041;-69
2021/01/18 05:48:12;;;;;;;59.13;20.10;;;1.80;91.70;;;;;;5068959;28;20052;-68
2021/01/18 05:50:39;;;;;;;55.43;20.33;;;1.80;91.70;;;;;;5068721;28;20123;-69
2021/01/18 05:53:29;;;;;;;51.60;19.47;;;1.90;91.80;;;;;;5070105;28;20040;-68
2021/01/18 05:55:55;;;;;;;54.27;19.13;;;1.90;91.90;;;;;;5065120;28;20040;-69
2021/01/18 05:58:32;;;;;;;58.77;20.97;;;1.90;91.80;;;;;;5065357;28;20032;-68
2021/01/18 06:01:01;;;;;;;56.53;20.47;;;1.90;91.80;;;;;;5048144;28;20428;-70
2021/01/18 06:03:31;;;;;;;46.37;19.03;;;1.90;91.90;;;;;;5049275;28;20029;-67
2021/01/18 06:05:58;;;;;;;42.72;16.92;;;1.90;91.90;;;;;;5050242;28;20041;-70
2021/01/18 06:08:25;;;;;;;49.13;17.87;;;1.90;91.90;;;;;;5049640;28;20061;-68
2021/01/18 06:10:53;;;;;;;46.33;19.00;;;1.90;92.00;;;;;;5048245;28;20040;-68
2021/01/18 06:13:22;;;;;;;54.13;22.40;;;2.00;92.00;;;;;;5049566;28;20037;-69
2021/01/18 06:15:50;;;;;;;48.43;19.03;;;2.00;92.00;;;;;;5050695;28;20036;-69
2021/01/18 06:18:16;;;;;;;46.57;17.63;;;2.00;91.90;;;;;;5032669;28;20035;-67
2021/01/18 06:20:45;;;;;;;48.67;17.90;;;2.00;92.00;;;;;;5048831;28;20053;-67
2021/01/18 06:23:20;;;;;;;56.23;19.53;;;2.10;92.10;;;;;;5048861;28;20497;-67
2021/01/18 06:25:51;;;;;;;50.03;18.77;;;2.00;92.00;;;;;;5054928;28;20031;-69
2021/01/18 06:28:30;;;;;;;;;;;2.00;92.10;;;;;;5052251;28;20708;-69
2021/01/18 06:31:09;;;;;;;55.97;20.83;;;2.00;92.10;;;;;;5048389;28;19944;-68
2021/01/18 06:33:48;;;;;;;53.00;19.67;;;2.10;92.10;;;;;;5050123;28;20037;-68
2021/01/18 06:36:25;;;;;;;55.50;19.80;;;2.10;92.10;;;;;;5050214;28;20133;-66
2021/01/18 06:38:56;;;;;;;57.97;18.37;;;2.10;92.20;;;;;;5050683;28;20248;-67
2021/01/18 06:41:26;;;;;;;58.47;19.20;;;2.10;92.10;;;;;;5049523;28;20041;-69
2021/01/18 06:43:52;;;;;;;55.83;18.52;;;2.10;92.10;;;;;;5049525;28;20037;-68
2021/01/18 06:46:21;;;;;;;55.57;18.03;;;2.10;92.20;;;;;;5050546;28;20043;-68
2021/01/18 06:48:49;;;;;;;57.60;17.57;;;2.10;92.20;;;;;;5048968;28;20029;-67
2021/01/18 06:51:18;;;;;;;47.77;17.80;;;2.10;92.30;;;;;;5048511;28;20033;-67
2021/01/18 06:53:47;;;;;;;57.07;18.17;;;2.20;92.40;;;;;;5048845;28;20045;-66
2021/01/18 06:56:19;;;;;;;52.33;18.77;;;2.20;92.30;;;;;;5049297;28;20084;-68
2021/01/18 06:59:08;;;;;;;53.83;17.70;;;2.20;92.30;;;;;;5049804;28;20079;-68
2021/01/18 07:01:38;;;;;;;51.33;17.27;;;2.20;92.40;;;;;;5049781;28;20116;-68
2021/01/18 07:04:04;;;;;;;62.43;18.80;;;2.20;92.40;;;;;;5050054;28;20033;-66
2021/01/18 07:06:34;;;;;;;58.37;17.63;;;2.20;92.50;;;;;;5049148;28;20035;-68
2021/01/18 07:09:08;;;;;;;61.20;17.87;;;2.30;92.50;;;;;;5049945;28;20357;-68
2021/01/18 07:11:34;;;;;;;50.73;16.93;;;2.30;92.50;;;;;;5031863;28;20052;-67
2021/01/18 07:14:04;;;;;;;66.73;17.23;;;2.30;92.50;;;;;;5048514;28;20071;-68
2021/01/18 07:16:31;;;;;;;48.28;15.95;;;2.30;92.50;;;;;;5049110;28;20048;-69
2021/01/18 07:46:18;;;;;;;50.17;14.73;;;2.40;92.90;;;;;;5057644;28;20400;-68
2021/01/18 07:48:43;;;;;;;59.10;14.60;;;2.50;92.90;;;;;;5062749;28;20052;-69
2021/01/18 07:51:21;;;;;;;66.07;15.00;;;2.50;92.90;;;;;;5045311;28;20028;-69
2021/01/18 07:53:47;;;;;;;52.07;14.20;;;2.50;92.90;;;;;;5063509;28;20401;-66
2021/01/18 07:56:32;;;;;;;53.63;14.87;;;2.50;93.20;;;;;;5057503;28;20021;-70
2021/01/18 07:58:59;;;;;;;42.73;14.37;;;2.50;93.10;;;;;;5052351;28;20094;-67
2021/01/18 08:01:39;;;;;;;45.60;14.40;;;2.50;93.10;;;;;;5050574;28;20044;-67
2021/01/18 08:04:20;;;;;;;40.03;13.30;;;2.60;93.20;;;;;;5052837;28;20036;-69
2021/01/18 08:07:05;;;;;;;39.70;13.07;;;2.60;93.20;;;;;;5053137;28;20036;-67
2021/01/18 08:09:33;;;;;;;36.80;12.50;;;2.60;93.10;;;;;;5060489;28;20059;-68
2021/01/18 08:12:30;;;;;;;41.27;13.73;;;2.60;93.10;;;;;;5071355;28;20032;-69
2021/01/18 08:15:04;;;;;;;38.63;12.83;;;2.70;93.20;;;;;;5034346;28;20040;-68
2021/01/18 08:17:30;;;;;;;37.57;12.87;;;2.70;93.20;;;;;;5061025;28;20029;-68
2021/01/18 08:20:22;;;;;;;40.33;13.20;;;2.70;93.30;;;;;;5057030;28;20047;-69
2021/01/18 08:22:48;;;;;;;39.10;13.20;;;2.80;93.40;;;;;;5071191;28;20040;-68
2021/01/18 08:25:14;;;;;;;35.13;12.60;;;2.90;93.40;;;;;;5068713;28;20060;-69
2021/01/18 08:27:47;;;;;;;36.17;12.50;;;2.90;93.50;;;;;;5070428;28;20029;-68
2021/01/18 08:30:34;;;;;;;34.03;12.53;;;3.00;93.50;;;;;;5069829;28;20045;-69
2021/01/18 08:33:05;;;;;;;33.57;12.00;;;3.00;93.40;;;;;;5070657;28;20037;-68
2021/01/18 08:35:44;;;;;;;36.70;12.20;;;3.10;93.40;;;;;;5072300;28;20035;-68
2021/01/18 08:38:24;;;;;;;35.87;12.30;;;3.10;93.50;;;;;;5071668;28;20123;-68
2021/01/18 08:40:53;;;;;;;32.27;11.97;;;3.10;93.50;;;;;;5071326;28;20121;-69
2021/01/18 08:43:21;;;;;;;36.40;13.10;;;3.20;93.50;;;;;;5070337;28;20477;-68
2021/01/18 08:45:47;;;;;;;31.83;11.27;;;3.20;93.60;;;;;;5072424;28;20493;-68
2021/01/18 08:48:19;;;;;;;34.33;12.53;;;3.30;93.60;;;;;;5062751;28;20087;-68
2021/01/18 08:50:52;;;;;;;32.73;11.90;;;3.30;93.50;;;;;;5066258;28;20036;-69
2021/01/18 08:53:23;;;;;;;29.47;11.37;;;3.30;93.40;;;;;;5071818;28;20408;-68
2021/01/18 08:55:51;;;;;;;32.93;11.80;;;3.30;93.40;;;;;;5071781;28;20033;-68
2021/01/18 08:58:39;;;;;;;34.70;12.20;;;3.30;93.40;;;;;;5070345;28;20401;-68
2021/01/18 09:01:10;;;;;;;34.80;11.07;;;3.30;93.40;;;;;;5071090;28;20051;-68
2021/01/18 09:03:36;;;;;;;;;;;3.30;93.50;;;;;;5072048;28;20409;-68
2021/01/18 09:06:03;;;;;;;33.67;11.57;;;3.30;93.60;;;;;;5061959;28;19928;-69
2021/01/18 09:08:29;;;;;;;34.70;12.03;;;3.40;93.70;;;;;;5064759;28;20025;-70
2021/01/18 09:10:57;;;;;;;33.27;12.00;;;3.50;93.70;;;;;;5062422;28;20055;-69
2021/01/18 09:13:26;;;;;;;33.10;11.60;;;3.50;93.60;;;;;;5055246;28;20052;-70
2021/01/18 09:15:53;;;;;;;35.27;11.63;;;3.50;93.60;;;;;;5064501;28;20033;-70
2021/01/18 09:18:22;;;;;;;32.83;11.70;;;3.60;93.50;;;;;;5069692;28;20093;-69
2021/01/18 09:20:49;;;;;;;29.67;11.90;;;3.60;93.70;;;;;;5069820;28;20043;-68
2021/01/18 09:23:16;;;;;;;27.20;10.73;;;3.70;93.70;;;;;;5070855;28;20040;-69
2021/01/18 09:25:42;;;;;;;35.27;10.97;;;3.70;93.60;;;;;;5070202;28;20492;-69
2021/01/18 09:28:13;;;;;;;29.17;11.10;;;3.70;93.60;;;;;;5071481;28;20037;-70
2021/01/18 09:30:42;;;;;;;30.70;12.00;;;3.80;93.60;;;;;;5070572;28;20097;-70
2021/01/18 09:33:11;;;;;;;27.40;10.90;;;3.80;93.60;;;;;;5071490;28;20501;-70
2021/01/18 09:35:42;;;;;;;30.63;11.83;;;3.80;93.50;;;;;;5069726;28;20060;-70
2021/01/18 09:38:10;;;;;;;33.80;11.93;;;3.80;93.50;;;;;;5070037;28;20044;-70
2021/01/18 09:40:38;;;;;;;30.90;12.20;;;3.80;93.50;;;;;;5070129;28;20032;-70
2021/01/18 09:43:05;;;;;;;32.17;11.67;;;3.80;93.40;;;;;;5071308;28;20039;-69
2021/01/18 09:45:33;;;;;;;35.03;10.93;;;3.80;93.50;;;;;;5069066;28;20057;-70
2021/01/18 09:48:03;;;;;;;30.17;11.70;;;3.90;93.70;;;;;;5071220;28;20547;-70
2021/01/18 09:50:30;;;;;;;31.85;11.32;;;3.90;93.70;;;;;;5069281;28;20059;-70
2021/01/18 09:52:57;;;;;;;34.97;11.70;;;4.00;93.60;;;;;;5070827;28;20025;-70
2021/01/18 09:55:32;;;;;;;38.80;12.03;;;4.00;93.40;;;;;;5071033;28;20029;-69
2021/01/18 09:58:04;;;;;;;33.23;11.73;;;4.00;93.50;;;;;;5070740;28;20112;-70
2021/01/18 10:00:32;;;;;;;36.60;12.03;;;4.00;93.40;;;;;;5070281;28;20104;-67
2021/01/18 10:03:00;;;;;;;35.07;12.27;;;4.00;93.50;;;;;;5070751;28;20469;-69
2021/01/18 10:05:39;;;;;;;38.27;13.33;;;4.10;93.50;;;;;;5071030;28;20025;-69
2021/01/18 10:08:21;;;;;;;33.27;12.87;;;4.10;93.60;;;;;;5052796;28;20040;-70
2021/01/18 10:10:49;;;;;;;33.67;12.80;;;4.20;93.60;;;;;;5070290;28;20090;-69
2021/01/18 10:13:18;;;;;;;34.43;13.50;;;4.20;93.40;;;;;;5070484;28;20112;-70
2021/01/18 10:15:46;;;;;;;40.80;14.87;;;4.20;93.40;;;;;;5071066;28;20049;-69
2021/01/18 10:18:31;;;;;;;42.07;15.10;;;4.20;93.30;;;;;;5070343;28;20044;-68
2021/01/18 10:20:59;;;;;;;37.40;13.70;;;4.10;93.20;;;;;;5070213;28;20059;-69
2021/01/18 10:23:30;;;;;;;45.50;14.67;;;4.10;93.30;;;;;;5070492;28;20040;-69
2021/01/18 10:26:17;;;;;;;40.13;14.13;;;4.10;93.40;;;;;;5069382;28;20477;-69
2021/01/18 10:29:09;;;;;;;38.33;13.70;;;4.10;93.60;;;;;;5070361;28;20037;-69
2021/01/18 10:31:36;;;;;;;43.53;14.63;;;4.20;93.40;;;;;;5066507;28;20049;-70
2021/01/18 10:34:28;;;;;;;37.60;13.43;;;4.20;93.50;;;;;;5070707;28;20032;-69
2021/01/18 10:36:55;;;;;;;39.13;14.30;;;4.20;93.50;;;;;;5070403;28;20101;-69
2021/01/18 10:39:36;;;;;;;34.27;14.30;;;4.20;93.40;;;;;;5070083;28;20497;-69
2021/01/18 10:42:10;;;;;;;35.72;14.23;;;4.30;93.50;;;;;;5070237;28;20111;-70
2021/01/18 10:44:39;;;;;;;39.10;14.10;;;4.30;93.40;;;;;;5070547;28;20458;-69
2021/01/18 10:47:06;;;;;;;39.07;14.33;;;4.30;93.40;;;;;;5070413;28;20040;-69
2021/01/18 10:49:35;;;;;;;38.27;14.40;;;4.30;93.20;;;;;;5070036;28;20036;-69
2021/01/18 10:52:11;;;;;;;30.50;12.43;;;4.30;93.40;;;;;;5070050;28;20085;-68
2021/01/18 10:54:38;;;;;;;34.73;13.50;;;4.30;93.60;;;;;;5069132;28;20032;-69
2021/01/18 10:57:21;;;;;;;34.53;14.67;;;4.30;93.30;;;;;;5071303;28;20404;-70
2021/01/18 11:00:08;;;;;;;28.47;12.87;;;4.30;93.40;;;;;;5073724;28;20128;-70
2021/01/18 11:02:39;;;;;;;29.97;12.33;;;4.30;93.40;;;;;;5072684;28;20033;-67
2021/01/18 11:05:07;;;;;;;28.40;12.70;;;4.30;93.20;;;;;;5073086;28;20535;-69
2021/01/18 11:07:34;;;;;;;27.13;12.77;;;4.30;93.40;;;;;;5072559;28;20420;-69
2021/01/18 11:10:01;;;;;;;27.33;12.43;;;4.30;93.40;;;;;;5072279;28;20064;-68
2021/01/18 11:12:34;;;;;;;25.70;12.67;;;4.40;93.40;;;;;;5072484;28;20052;-69
2021/01/18 11:15:03;;;;;;;32.33;13.20;;;4.40;93.30;;;;;;5068343;28;20131;-67
2021/01/18 11:17:30;;;;;;;27.40;12.83;;;4.40;93.20;;;;;;5062983;28;20450;-69
2021/01/18 11:19:57;;;;;;;30.07;13.80;;;4.40;93.30;;;;;;5058764;28;20128;-69
2021/01/18 11:22:23;;;;;;;27.73;13.23;;;4.40;93.40;;;;;;5053810;28;20041;-70
2021/01/18 11:24:49;;;;;;;25.83;13.23;;;4.40;93.30;;;;;;5053414;28;20052;-69
2021/01/18 11:27:16;;;;;;;28.33;13.23;;;4.40;93.30;;;;;;5053911;28;20037;-68
2021/01/18 11:29:43;;;;;;;26.33;12.80;;;4.40;93.40;;;;;;5052822;28;20041;-67
2021/01/18 11:32:10;;;;;;;27.27;12.83;;;4.50;93.40;;;;;;5053055;28;20044;-70
2021/01/18 11:34:36;;;;;;;30.77;13.77;;;4.50;93.30;;;;;;5053769;28;20083;-68
2021/01/18 11:37:08;;;;;;;32.80;14.53;;;4.50;93.40;;;;;;5051947;28;20033;-68
2021/01/18 11:39:38;;;;;;;34.37;15.03;;;4.50;93.40;;;;;;5051615;28;20098;-70
2021/01/18 11:42:06;;;;;;;32.93;15.17;;;4.50;93.30;;;;;;5051701;28;20393;-69
2021/01/18 11:44:32;;;;;;;33.43;15.23;;;4.50;93.30;;;;;;5052289;28;20033;-67
2021/01/18 11:47:00;;;;;;;32.97;14.83;;;4.50;93.30;;;;;;5053133;28;20044;-70
2021/01/18 11:49:27;;;;;;;33.97;15.53;;;4.60;93.40;;;;;;5051683;28;20405;-69
2021/01/18 11:51:57;;;;;;;33.00;16.37;;;4.60;93.30;;;;;;5052017;28;20037;-67
2021/01/18 11:54:24;;;;;;;;;;;4.60;93.30;;;;;;5052231;28;20037;-69
2021/01/18 11:56:50;;;;;;;36.67;15.73;;;4.60;93.40;;;;;;5051765;28;20293;-69
2021/01/18 11:59:16;;;;;;;37.83;16.07;;;4.60;93.40;;;;;;5051325;28;20037;-69
2021/01/18 12:01:43;;;;;;;44.43;17.23;;;4.70;93.40;;;;;;5034471;28;20054;-70
2021/01/18 12:04:09;;;;;;;36.33;16.57;;;4.70;93.30;;;;;;5053188;28;20065;-70
2021/01/18 12:06:39;;;;;;;36.07;15.50;;;4.70;93.30;;;;;;5051573;28;20047;-69
2021/01/18 12:09:07;;;;;;;43.03;17.58;;;4.70;93.30;;;;;;5052709;28;20048;-67
2021/01/18 12:11:38;;;;;;;40.27;17.60;;;4.70;93.30;;;;;;5051811;28;20060;-69
2021/01/18 12:14:04;;;;;;;40.03;18.45;;;4.70;93.30;;;;;;5053157;28;20037;-69
2021/01/18 12:16:31;;;;;;;45.13;18.83;;;4.70;93.40;;;;;;5052488;28;20124;-68
2021/01/18 12:18:57;;;;;;;42.40;19.13;;;4.70;93.30;;;;;;5051511;28;20443;-69
2021/01/18 12:21:23;;;;;;;45.73;18.97;;;4.70;93.30;;;;;;5051873;28;20068;-68
2021/01/18 12:23:49;;;;;;;43.40;19.40;;;4.70;93.40;;;;;;5052481;28;20037;-70
2021/01/18 12:26:19;;;;;;;41.87;20.00;;;4.80;93.30;;;;;;5052009;28;20051;-71
2021/01/18 12:28:49;;;;;;;38.70;18.98;;;4.70;93.30;;;;;;5067482;28;20037;-70
2021/01/18 12:31:16;;;;;;;41.42;19.00;;;4.80;93.30;;;;;;5062191;28;20498;-68
2021/01/18 12:33:43;;;;;;;42.07;19.57;;;4.70;93.30;;;;;;5072370;28;20082;-67
2021/01/18 12:36:10;;;;;;;47.00;19.77;;;4.80;93.30;;;;;;5072411;28;20121;-68
2021/01/18 12:38:36;;;;;;;40.83;19.50;;;4.80;93.30;;;;;;5072599;28;20077;-65
2021/01/18 12:41:02;;;;;;;43.13;18.73;;;4.80;93.40;;;;;;5071431;28;20052;-69
2021/01/18 12:43:28;;;;;;;42.97;19.97;;;4.80;93.40;;;;;;5072453;28;20489;-70
2021/01/18 12:45:56;;;;;;;41.53;19.73;;;4.80;93.40;;;;;;5072083;28;20070;-70
2021/01/18 12:48:22;;;;;;;43.53;20.83;;;4.80;93.50;;;;;;5071182;28;20401;-68
2021/01/18 12:50:48;;;;;;;41.37;19.80;;;4.80;93.40;;;;;;5071410;28;20044;-69
2021/01/18 12:55:59;;;;;;;45.87;20.03;;;4.80;93.40;;;;;;5070852;28;20063;-68
2021/01/18 12:58:25;;;;;;;43.10;20.50;;;4.90;93.40;;;;;;5069509;28;20131;-69
2021/01/18 13:00:50;;;;;;;45.97;19.87;;;4.80;93.40;;;;;;5065996;28;20127;-69
2021/01/18 13:03:17;;;;;;;41.43;19.53;;;4.80;93.50;;;;;;5068853;28;20566;-69
2021/01/18 13:05:43;;;;;;;47.03;20.60;;;4.80;93.60;;;;;;5071975;28;20041;-69
2021/01/18 13:08:08;;;;;;;43.40;19.90;;;4.90;93.50;;;;;;5070633;28;20044;-71
2021/01/18 13:10:34;;;;;;;42.17;19.73;;;4.90;93.60;;;;;;5052960;28;20405;-70
2021/01/18 13:13:00;;;;;;;45.40;19.53;;;4.90;93.50;;;;;;5071550;28;20101;-70
2021/01/18 13:15:28;;;;;;;40.03;19.40;;;4.90;93.50;;;;;;5064673;28;20044;-70
2021/01/18 13:17:54;;;;;;;34.23;18.90;;;4.90;93.50;;;;;;5067071;28;20127;-68
2021/01/18 13:20:20;;;;;;;37.47;19.27;;;5.00;93.60;;;;;;5069737;28;20626;-69
2021/01/18 13:22:46;;;;;;;37.90;19.07;;;5.00;93.50;;;;;;5070918;28;20493;-68
2021/01/18 13:25:12;;;;;;;32.57;17.40;;;5.00;93.50;;;;;;5067652;28;20094;-69